EPZA weather

Zamość-Mokre Airport
Zamość, Lublin, Poland

Public forecast

Using degrees Celsius for public forecast. Weather courtesy of forecast.io.

METAR (pilot weather report)

Closest report is Rzeszów-Jasionka Airport, 57.6 nm (106.7 km) SW. Retrieved 2019/03/26 01:30 UTC (25 minutes ago):

EPRZ 260130Z 28007KT 7000 SCT023 02/01 Q1016

TAF (pilot weather forecast)

Forecast is more than 12 hours old.

Closest forecast is Rzeszów-Jasionka Airport, 57.6 nm (106.7 km) SW. Retrieved 2019/03/25 00:33 UTC (1 day ago):

TAF EPRZ 252330Z 2600/2624 27010KT 9999 BKN020CB BECMG 2600/2603 BKN007 BECMG 2604/2607 SCT020 BECMG 2609/2612 29015G25KT TEMPO 2612/2615 29020G35KT TEMPO 2615/2622 29020G35KT 2000 SHRA SHSNRA BKN009 BKN014CB BECMG 2622/2624 29010KT